sensor_id;sensor_type;location;lat;lon;timestamp;pressure;altitude;pressure_sealevel;temperature;humidity
64243;BME280;50573;51.512;5.386;2023-06-10T00:03:29;170611.16;;;22.93;59.78
64243;BME280;50573;51.512;5.386;2023-06-10T00:13:32;170580.44;;;22.81;60.08
64243;BME280;50573;51.512;5.386;2023-06-10T00:23:37;170525.75;;;22.61;61.08
64243;BME280;50573;51.512;5.386;2023-06-10T00:33:40;170484.28;;;22.45;61.28
64243;BME280;50573;51.512;5.386;2023-06-10T00:43:44;170406.88;;;22.16;63.00
64243;BME280;50573;51.512;5.386;2023-06-10T00:53:49;170354.88;;;21.97;63.16
64243;BME280;50573;51.512;5.386;2023-06-10T01:03:53;170256.06;;;21.59;65.10
64243;BME280;50573;51.512;5.386;2023-06-10T01:13:58;170189.41;;;21.34;65.71
64243;BME280;50573;51.512;5.386;2023-06-10T01:24:03;170104.03;;;21.02;67.33
64243;BME280;50573;51.512;5.386;2023-06-10T01:34:13;170007.97;;;20.66;68.70
64243;BME280;50573;51.512;5.386;2023-06-10T01:44:21;169941.28;;;20.41;69.81
64243;BME280;50573;51.512;5.386;2023-06-10T01:54:24;169888.00;;;20.21;69.58
64243;BME280;50573;51.512;5.386;2023-06-10T02:04:28;169847.94;;;20.06;70.51
64243;BME280;50573;51.512;5.386;2023-06-10T02:14:33;169807.94;;;19.91;71.11
64243;BME280;50573;51.512;5.386;2023-06-10T02:24:38;169773.28;;;19.78;72.16
64243;BME280;50573;51.512;5.386;2023-06-10T02:34:41;169730.63;;;19.62;72.64
64243;BME280;50573;51.512;5.386;2023-06-10T02:44:46;169672.03;;;19.40;74.55
64243;BME280;50573;51.512;5.386;2023-06-10T02:54:56;169630.69;;;19.24;75.66
64243;BME280;50573;51.512;5.386;2023-06-10T03:05:01;169592.06;;;19.09;76.51
64243;BME280;50573;51.512;5.386;2023-06-10T03:15:06;169568.03;;;19.00;77.07
64243;BME280;50573;51.512;5.386;2023-06-10T03:25:11;169540.09;;;18.90;78.55
64243;BME280;50573;51.512;5.386;2023-06-10T03:35:19;169517.44;;;18.81;79.88
64243;BME280;50573;51.512;5.386;2023-06-10T03:45:24;169481.47;;;18.68;80.64
64243;BME280;50573;51.512;5.386;2023-06-10T03:55:31;169482.81;;;18.68;80.93
64243;BME280;50573;51.512;5.386;2023-06-10T04:05:37;169500.13;;;18.75;81.25
64243;BME280;50573;51.512;5.386;2023-06-10T04:15:40;169534.75;;;18.88;80.68
64243;BME280;50573;51.512;5.386;2023-06-10T04:25:49;169553.44;;;18.95;80.55
64243;BME280;50573;51.512;5.386;2023-06-10T04:35:53;169593.34;;;19.10;79.88
64243;BME280;50573;51.512;5.386;2023-06-10T04:46:00;169645.38;;;19.29;79.69
64243;BME280;50573;51.512;5.386;2023-06-10T04:56:04;169680.00;;;19.43;78.07
64243;BME280;50573;51.512;5.386;2023-06-10T05:06:10;169741.31;;;19.66;77.05
64243;BME280;50573;51.512;5.386;2023-06-10T05:16:13;169801.28;;;19.88;76.14
64243;BME280;50573;51.512;5.386;2023-06-10T05:26:18;169878.66;;;20.17;74.85
64243;BME280;50573;51.512;5.386;2023-06-10T05:36:21;169933.28;;;20.38;73.78
64243;BME280;50573;51.512;5.386;2023-06-10T05:46:28;170050.63;;;20.82;72.99
64243;BME280;50573;51.512;5.386;2023-06-10T05:56:31;170138.72;;;21.15;70.67
64243;BME280;50573;51.512;5.386;2023-06-10T06:06:38;170226.72;;;21.48;69.07
64243;BME280;50573;51.512;5.386;2023-06-10T06:16:41;170281.47;;;21.69;67.05
64243;BME280;50573;51.512;5.386;2023-06-10T06:26:46;170350.84;;;21.95;66.34
64243;BME280;50573;51.512;5.386;2023-06-10T06:36:49;170482.97;;;22.45;65.29
64243;BME280;50573;51.512;5.386;2023-06-10T06:46:54;170580.44;;;22.81;63.54
64243;BME280;50573;51.512;5.386;2023-06-10T06:56:57;170640.53;;;23.04;61.61
64243;BME280;50573;51.512;5.386;2023-06-10T07:07:02;170727.38;;;23.37;60.16
64243;BME280;50573;51.512;5.386;2023-06-10T07:17:05;170863.59;;;23.88;59.38
64243;BME280;50573;51.512;5.386;2023-06-10T07:27:10;170895.69;;;24.00;57.29
64243;BME280;50573;51.512;5.386;2023-06-10T07:37:13;170993.22;;;24.36;57.35
64243;BME280;50573;51.512;5.386;2023-06-10T07:47:17;171090.78;;;24.73;54.33
64243;BME280;50573;51.512;5.386;2023-06-10T07:57:20;171225.78;;;25.24;53.88
64243;BME280;50573;51.512;5.386;2023-06-10T08:07:25;171290.00;;;25.48;50.90
64243;BME280;50573;51.512;5.386;2023-06-10T08:17:28;171445.13;;;26.06;50.05
64243;BME280;50573;51.512;5.386;2023-06-10T08:27:32;171498.63;;;26.26;48.70
64243;BME280;50573;51.512;5.386;2023-06-10T08:37:36;171597.56;;;26.63;47.60
64243;BME280;50573;51.512;5.386;2023-06-10T08:47:50;171681.88;;;26.95;46.66
64243;BME280;50573;51.512;5.386;2023-06-10T08:57:55;171779.59;;;27.32;45.02
64243;BME280;50573;51.512;5.386;2023-06-10T09:08:05;171814.34;;;27.45;44.57
64243;BME280;50573;51.512;5.386;2023-06-10T09:18:09;171912.06;;;27.81;41.97
64243;BME280;50573;51.512;5.386;2023-06-10T09:28:20;171930.81;;;27.88;41.99
64243;BME280;50573;51.512;5.386;2023-06-10T09:38:29;172029.91;;;28.25;43.82
64243;BME280;50573;51.512;5.386;2023-06-10T09:48:41;172082.09;;;28.45;41.74
64243;BME280;50573;51.512;5.386;2023-06-10T09:58:45;172151.72;;;28.71;40.57
64243;BME280;50573;51.512;5.386;2023-06-10T10:08:52;172194.59;;;28.87;38.82
64243;BME280;50573;51.512;5.386;2023-06-10T10:19:01;172371.41;;;29.53;39.25
64243;BME280;50573;51.512;5.386;2023-06-10T10:29:11;172437.09;;;29.78;37.54
64243;BME280;50573;51.512;5.386;2023-06-10T10:39:17;172497.34;;;30.01;38.47
64243;BME280;50573;51.512;5.386;2023-06-10T10:49:26;172573.75;;;30.29;37.18
64243;BME280;50573;51.512;5.386;2023-06-10T10:59:43;172652.81;;;30.59;37.93
64243;BME280;50573;51.512;5.386;2023-06-10T11:10:09;172690.31;;;30.73;35.62
64243;BME280;50573;51.512;5.386;2023-06-10T11:20:59;172774.75;;;31.04;36.34
64243;BME280;50573;51.512;5.386;2023-06-10T11:31:06;172802.91;;;31.15;33.71
64243;BME280;50573;51.512;5.386;2023-06-10T11:41:13;172891.47;;;31.48;32.92
64243;BME280;50573;51.512;5.386;2023-06-10T11:51:27;172955.78;;;31.72;33.57
64243;BME280;50573;51.512;5.386;2023-06-10T12:01:32;172911.53;;;31.56;31.86
64243;BME280;50573;51.512;5.386;2023-06-10T12:11:39;172898.13;;;31.51;32.18
64243;BME280;50573;51.512;5.386;2023-06-10T12:21:46;172965.19;;;31.76;32.21
64243;BME280;50573;51.512;5.386;2023-06-10T12:32:00;173044.28;;;32.05;30.37
64243;BME280;50573;51.512;5.386;2023-06-10T12:42:05;173048.31;;;32.07;30.24
64243;BME280;50573;51.512;5.386;2023-06-10T12:52:12;173010.78;;;31.93;31.15
64243;BME280;50573;51.512;5.386;2023-06-10T13:02:21;173069.75;;;32.15;31.50
64243;BME280;50573;51.512;5.386;2023-06-10T13:12:29;173198.56;;;32.63;29.19
64243;BME280;50573;51.512;5.386;2023-06-10T13:22:47;172998.75;;;31.88;29.53
64243;BME280;50573;51.512;5.386;2023-06-10T13:32:52;173198.56;;;32.63;29.26
64243;BME280;50573;51.512;5.386;2023-06-10T13:42:55;173413.25;;;33.43;26.90
64243;BME280;50573;51.512;5.386;2023-06-10T13:53:02;173567.63;;;34.01;25.73
64243;BME280;50573;51.512;5.386;2023-06-10T14:03:08;173775.66;;;34.79;25.36
64243;BME280;50573;51.512;5.386;2023-06-10T14:13:19;173572.94;;;34.03;26.55
64243;BME280;50573;51.512;5.386;2023-06-10T14:23:25;173586.38;;;34.08;26.51
64243;BME280;50573;51.512;5.386;2023-06-10T14:33:36;173566.25;;;34.01;27.01
64243;BME280;50573;51.512;5.386;2023-06-10T14:43:41;173550.16;;;33.95;26.83
64243;BME280;50573;51.512;5.386;2023-06-10T14:53:53;173622.59;;;34.22;26.12
64243;BME280;50573;51.512;5.386;2023-06-10T15:03:59;173717.94;;;34.57;26.08
64243;BME280;50573;51.512;5.386;2023-06-10T15:14:12;173386.38;;;33.33;27.39
64243;BME280;50573;51.512;5.386;2023-06-10T15:24:15;173232.09;;;32.76;27.24
64243;BME280;50573;51.512;5.386;2023-06-10T15:34:24;172912.91;;;31.56;30.45
64243;BME280;50573;51.512;5.386;2023-06-10T15:44:36;172942.38;;;31.67;29.40
64243;BME280;50573;51.512;5.386;2023-06-10T15:54:41;172931.63;;;31.63;29.68
64243;BME280;50573;51.512;5.386;2023-06-10T16:04:50;172963.81;;;31.75;29.84
64243;BME280;50573;51.512;5.386;2023-06-10T16:14:58;172958.44;;;31.73;28.45
64243;BME280;50573;51.512;5.386;2023-06-10T16:25:05;172883.38;;;31.45;29.49
64243;BME280;50573;51.512;5.386;2023-06-10T16:35:14;172824.38;;;31.23;30.70
64243;BME280;50573;51.512;5.386;2023-06-10T16:45:20;172737.25;;;30.90;30.40
64243;BME280;50573;51.512;5.386;2023-06-10T16:55:32;172695.69;;;30.75;31.36
64243;BME280;50573;51.512;5.386;2023-06-10T17:05:38;172687.66;;;30.72;31.58
64243;BME280;50573;51.512;5.386;2023-06-10T17:15:49;172688.94;;;30.72;32.39
64243;BME280;50573;51.512;5.386;2023-06-10T17:25:56;172706.44;;;30.79;31.89
64243;BME280;50573;51.512;5.386;2023-06-10T17:36:04;172773.44;;;31.04;31.67
64243;BME280;50573;51.512;5.386;2023-06-10T17:46:11;172810.97;;;31.18;31.51
64243;BME280;50573;51.512;5.386;2023-06-10T17:56:22;172692.97;;;30.74;32.09
64243;BME280;50573;51.512;5.386;2023-06-10T18:06:27;172549.59;;;30.20;33.64
64243;BME280;50573;51.512;5.386;2023-06-10T18:16:36;172494.66;;;30.00;34.31
64243;BME280;50573;51.512;5.386;2023-06-10T18:26:44;172438.38;;;29.78;35.53
64243;BME280;50573;51.512;5.386;2023-06-10T18:36:53;172356.66;;;29.48;36.54
64243;BME280;50573;51.512;5.386;2023-06-10T18:47:03;172253.53;;;29.09;37.42
64243;BME280;50573;51.512;5.386;2023-06-10T18:57:11;172214.66;;;28.95;37.18
64243;BME280;50573;51.512;5.386;2023-06-10T19:07:16;172149.06;;;28.70;38.01
64243;BME280;50573;51.512;5.386;2023-06-10T19:17:29;172071.38;;;28.41;39.00
64243;BME280;50573;51.512;5.386;2023-06-10T19:27:33;171985.72;;;28.09;40.19
64243;BME280;50573;51.512;5.386;2023-06-10T19:37:44;171878.63;;;27.69;41.24
64243;BME280;50573;51.512;5.386;2023-06-10T19:47:49;171784.91;;;27.34;42.49
64243;BME280;50573;51.512;5.386;2023-06-10T19:57:54;171653.81;;;26.84;44.69
64243;BME280;50573;51.512;5.386;2023-06-10T20:07:57;171557.44;;;26.48;45.58
64243;BME280;50573;51.512;5.386;2023-06-10T20:18:01;171463.84;;;26.13;46.54
64243;BME280;50573;51.512;5.386;2023-06-10T20:28:05;171383.56;;;25.83;47.18
64243;BME280;50573;51.512;5.386;2023-06-10T20:38:09;171324.75;;;25.61;47.48
64243;BME280;50573;51.512;5.386;2023-06-10T20:48:13;171281.97;;;25.45;47.76
64243;BME280;50573;51.512;5.386;2023-06-10T20:58:19;171235.16;;;25.27;48.83
64243;BME280;50573;51.512;5.386;2023-06-10T21:08:22;171179.03;;;25.06;49.52
64243;BME280;50573;51.512;5.386;2023-06-10T21:18:30;171129.53;;;24.88;50.41
64243;BME280;50573;51.512;5.386;2023-06-10T21:28:33;171101.47;;;24.77;51.26
64243;BME280;50573;51.512;5.386;2023-06-10T21:38:37;171074.78;;;24.67;51.51
64243;BME280;50573;51.512;5.386;2023-06-10T21:48:41;171041.28;;;24.54;52.55
64243;BME280;50573;51.512;5.386;2023-06-10T21:58:46;170979.88;;;24.31;53.37
64243;BME280;50573;51.512;5.386;2023-06-10T22:08:50;170921.06;;;24.09;54.30
64243;BME280;50573;51.512;5.386;2023-06-10T22:18:54;170854.25;;;23.84;55.46
64243;BME280;50573;51.512;5.386;2023-06-10T22:28:57;170822.19;;;23.72;55.82
64243;BME280;50573;51.512;5.386;2023-06-10T22:39:02;170764.72;;;23.51;57.55
64243;BME280;50573;51.512;5.386;2023-06-10T22:49:05;170736.72;;;23.40;57.12
64243;BME280;50573;51.512;5.386;2023-06-10T22:59:10;170704.66;;;23.28;57.67
64243;BME280;50573;51.512;5.386;2023-06-10T23:09:13;170647.22;;;23.06;58.91
64243;BME280;50573;51.512;5.386;2023-06-10T23:19:17;170603.16;;;22.90;59.55
64243;BME280;50573;51.512;5.386;2023-06-10T23:29:23;170560.44;;;22.74;60.13
64243;BME280;50573;51.512;5.386;2023-06-10T23:39:28;170500.34;;;22.51;62.55
64243;BME280;50573;51.512;5.386;2023-06-10T23:49:31;170460.28;;;22.36;62.78
64243;BME280;50573;51.512;5.386;2023-06-10T23:59:35;170417.59;;;22.20;64.08
